sensor_id;sensor_type;location;lat;lon;timestamp;P1;durP1;ratioP1;P2;durP2;ratioP2
2416;SDS011;1219;48.736;9.330;2022-08-06T00:01:36;2.40;;;2.30;;
2416;SDS011;1219;48.736;9.330;2022-08-06T00:04:02;2.27;;;2.00;;
2416;SDS011;1219;48.736;9.330;2022-08-06T00:06:28;2.63;;;2.10;;
2416;SDS011;1219;48.736;9.330;2022-08-06T00:08:54;2.53;;;2.00;;
2416;SDS011;1219;48.736;9.330;2022-08-06T00:11:20;2.40;;;2.20;;
2416;SDS011;1219;48.736;9.330;2022-08-06T00:13:46;3.07;;;2.03;;
2416;SDS011;1219;48.736;9.330;2022-08-06T00:16:12;2.20;;;2.10;;
2416;SDS011;1219;48.736;9.330;2022-08-06T00:18:38;2.50;;;2.10;;
2416;SDS011;1219;48.736;9.330;2022-08-06T00:21:04;4.50;;;1.70;;
2416;SDS011;1219;48.736;9.330;2022-08-06T00:23:30;2.10;;;2.00;;
2416;SDS011;1219;48.736;9.330;2022-08-06T00:25:56;3.60;;;1.73;;
2416;SDS011;1219;48.736;9.330;2022-08-06T00:28:22;2.00;;;1.77;;
2416;SDS011;1219;48.736;9.330;2022-08-06T00:30:48;2.40;;;2.20;;
2416;SDS011;1219;48.736;9.330;2022-08-06T00:33:14;2.00;;;1.90;;
2416;SDS011;1219;48.736;9.330;2022-08-06T00:35:40;2.30;;;2.10;;
2416;SDS011;1219;48.736;9.330;2022-08-06T00:38:06;2.37;;;2.17;;
2416;SDS011;1219;48.736;9.330;2022-08-06T00:40:32;2.00;;;1.80;;
2416;SDS011;1219;48.736;9.330;2022-08-06T00:42:58;2.90;;;2.27;;
2416;SDS011;1219;48.736;9.330;2022-08-06T00:45:25;2.30;;;2.10;;
2416;SDS011;1219;48.736;9.330;2022-08-06T00:47:53;2.00;;;1.90;;
2416;SDS011;1219;48.736;9.330;2022-08-06T00:50:19;2.93;;;2.30;;
2416;SDS011;1219;48.736;9.330;2022-08-06T00:52:45;2.03;;;1.90;;
2416;SDS011;1219;48.736;9.330;2022-08-06T00:55:12;2.53;;;2.43;;
2416;SDS011;1219;48.736;9.330;2022-08-06T00:57:38;3.97;;;2.20;;
2416;SDS011;1219;48.736;9.330;2022-08-06T01:00:05;4.00;;;2.30;;
2416;SDS011;1219;48.736;9.330;2022-08-06T01:02:31;3.33;;;2.00;;
2416;SDS011;1219;48.736;9.330;2022-08-06T01:04:57;2.00;;;1.90;;
2416;SDS011;1219;48.736;9.330;2022-08-06T01:07:23;3.97;;;2.70;;
2416;SDS011;1219;48.736;9.330;2022-08-06T01:09:49;2.27;;;1.90;;
2416;SDS011;1219;48.736;9.330;2022-08-06T01:12:15;4.00;;;2.10;;
2416;SDS011;1219;48.736;9.330;2022-08-06T01:14:41;1.87;;;1.77;;
2416;SDS011;1219;48.736;9.330;2022-08-06T01:27:44;2.87;;;1.93;;
2416;SDS011;1219;48.736;9.330;2022-08-06T01:30:16;3.83;;;1.87;;
2416;SDS011;1219;48.736;9.330;2022-08-06T01:32:45;1.70;;;1.60;;
2416;SDS011;1219;48.736;9.330;2022-08-06T01:35:14;2.57;;;2.00;;
2416;SDS011;1219;48.736;9.330;2022-08-06T01:37:44;2.30;;;2.20;;
2416;SDS011;1219;48.736;9.330;2022-08-06T01:40:19;3.33;;;1.80;;
2416;SDS011;1219;48.736;9.330;2022-08-06T01:42:47;1.93;;;1.83;;
2416;SDS011;1219;48.736;9.330;2022-08-06T01:45:15;1.90;;;1.80;;
2416;SDS011;1219;48.736;9.330;2022-08-06T01:47:43;2.07;;;1.90;;
2416;SDS011;1219;48.736;9.330;2022-08-06T01:50:11;1.90;;;1.80;;
2416;SDS011;1219;48.736;9.330;2022-08-06T01:52:38;3.60;;;2.03;;
2416;SDS011;1219;48.736;9.330;2022-08-06T01:55:05;2.00;;;1.90;;
2416;SDS011;1219;48.736;9.330;2022-08-06T01:57:33;2.13;;;2.03;;
2416;SDS011;1219;48.736;9.330;2022-08-06T01:59:59;2.30;;;1.93;;
2416;SDS011;1219;48.736;9.330;2022-08-06T02:02:27;2.90;;;1.80;;
2416;SDS011;1219;48.736;9.330;2022-08-06T02:04:55;1.70;;;1.60;;
2416;SDS011;1219;48.736;9.330;2022-08-06T02:07:24;1.73;;;1.63;;
2416;SDS011;1219;48.736;9.330;2022-08-06T02:09:50;2.03;;;1.93;;
2416;SDS011;1219;48.736;9.330;2022-08-06T02:12:18;3.40;;;2.10;;
2416;SDS011;1219;48.736;9.330;2022-08-06T02:14:46;1.83;;;1.73;;
2416;SDS011;1219;48.736;9.330;2022-08-06T02:17:14;2.40;;;1.77;;
2416;SDS011;1219;48.736;9.330;2022-08-06T02:19:48;1.80;;;1.70;;
2416;SDS011;1219;48.736;9.330;2022-08-06T02:22:15;4.83;;;1.50;;
2416;SDS011;1219;48.736;9.330;2022-08-06T02:24:41;2.33;;;1.83;;
2416;SDS011;1219;48.736;9.330;2022-08-06T02:27:07;2.30;;;1.90;;
2416;SDS011;1219;48.736;9.330;2022-08-06T02:29:35;1.67;;;1.53;;
2416;SDS011;1219;48.736;9.330;2022-08-06T02:32:02;3.93;;;2.13;;
2416;SDS011;1219;48.736;9.330;2022-08-06T02:34:28;2.60;;;1.80;;
2416;SDS011;1219;48.736;9.330;2022-08-06T02:37:03;2.00;;;1.90;;
2416;SDS011;1219;48.736;9.330;2022-08-06T02:39:42;2.07;;;1.90;;
2416;SDS011;1219;48.736;9.330;2022-08-06T02:44:43;1.80;;;1.70;;
2416;SDS011;1219;48.736;9.330;2022-08-06T02:47:12;1.83;;;1.73;;
2416;SDS011;1219;48.736;9.330;2022-08-06T02:49:41;1.93;;;1.73;;
2416;SDS011;1219;48.736;9.330;2022-08-06T02:52:16;1.90;;;1.70;;
2416;SDS011;1219;48.736;9.330;2022-08-06T02:54:50;1.63;;;1.53;;
2416;SDS011;1219;48.736;9.330;2022-08-06T02:57:20;1.50;;;1.40;;
2416;SDS011;1219;48.736;9.330;2022-08-06T02:59:49;1.90;;;1.70;;
2416;SDS011;1219;48.736;9.330;2022-08-06T03:02:16;4.00;;;2.03;;
2416;SDS011;1219;48.736;9.330;2022-08-06T03:04:45;2.23;;;1.80;;
2416;SDS011;1219;48.736;9.330;2022-08-06T03:07:12;1.93;;;1.83;;
2416;SDS011;1219;48.736;9.330;2022-08-06T03:09:40;3.50;;;1.77;;
2416;SDS011;1219;48.736;9.330;2022-08-06T03:12:06;1.70;;;1.60;;
2416;SDS011;1219;48.736;9.330;2022-08-06T03:14:33;2.03;;;1.83;;
2416;SDS011;1219;48.736;9.330;2022-08-06T03:16:59;2.00;;;1.90;;
2416;SDS011;1219;48.736;9.330;2022-08-06T03:19:26;1.90;;;1.70;;
2416;SDS011;1219;48.736;9.330;2022-08-06T03:21:53;2.60;;;1.70;;
2416;SDS011;1219;48.736;9.330;2022-08-06T03:24:20;1.70;;;1.60;;
2416;SDS011;1219;48.736;9.330;2022-08-06T03:26:46;1.87;;;1.70;;
2416;SDS011;1219;48.736;9.330;2022-08-06T03:29:13;1.80;;;1.70;;
2416;SDS011;1219;48.736;9.330;2022-08-06T03:31:39;2.20;;;2.00;;
2416;SDS011;1219;48.736;9.330;2022-08-06T03:34:06;1.90;;;1.80;;
2416;SDS011;1219;48.736;9.330;2022-08-06T03:36:33;1.93;;;1.83;;
2416;SDS011;1219;48.736;9.330;2022-08-06T03:39:05;1.90;;;1.50;;
2416;SDS011;1219;48.736;9.330;2022-08-06T03:41:34;2.17;;;2.03;;
2416;SDS011;1219;48.736;9.330;2022-08-06T03:44:00;2.20;;;1.83;;
2416;SDS011;1219;48.736;9.330;2022-08-06T03:46:32;2.53;;;1.83;;
2416;SDS011;1219;48.736;9.330;2022-08-06T03:49:01;2.33;;;1.80;;
2416;SDS011;1219;48.736;9.330;2022-08-06T03:51:27;1.97;;;1.83;;
2416;SDS011;1219;48.736;9.330;2022-08-06T03:53:53;3.73;;;3.20;;
2416;SDS011;1219;48.736;9.330;2022-08-06T03:56:23;2.37;;;2.00;;
2416;SDS011;1219;48.736;9.330;2022-08-06T03:58:52;4.90;;;2.33;;
2416;SDS011;1219;48.736;9.330;2022-08-06T04:01:21;2.37;;;2.17;;
2416;SDS011;1219;48.736;9.330;2022-08-06T04:03:48;2.10;;;1.87;;
2416;SDS011;1219;48.736;9.330;2022-08-06T04:06:14;2.00;;;1.70;;
2416;SDS011;1219;48.736;9.330;2022-08-06T04:08:43;2.67;;;1.90;;
2416;SDS011;1219;48.736;9.330;2022-08-06T04:11:10;2.00;;;1.90;;
2416;SDS011;1219;48.736;9.330;2022-08-06T04:13:36;2.70;;;1.60;;
2416;SDS011;1219;48.736;9.330;2022-08-06T04:16:03;2.33;;;2.03;;
2416;SDS011;1219;48.736;9.330;2022-08-06T04:18:33;2.60;;;1.93;;
2416;SDS011;1219;48.736;9.330;2022-08-06T04:21:01;1.97;;;1.70;;
2416;SDS011;1219;48.736;9.330;2022-08-06T04:23:28;2.70;;;1.90;;
2416;SDS011;1219;48.736;9.330;2022-08-06T04:25:55;2.13;;;1.80;;
2416;SDS011;1219;48.736;9.330;2022-08-06T04:28:23;1.80;;;1.70;;
2416;SDS011;1219;48.736;9.330;2022-08-06T04:30:49;2.57;;;1.93;;
2416;SDS011;1219;48.736;9.330;2022-08-06T04:33:17;2.10;;;1.90;;
2416;SDS011;1219;48.736;9.330;2022-08-06T04:35:45;2.10;;;2.00;;
2416;SDS011;1219;48.736;9.330;2022-08-06T04:38:11;2.53;;;2.20;;
2416;SDS011;1219;48.736;9.330;2022-08-06T04:40:38;2.10;;;1.97;;
2416;SDS011;1219;48.736;9.330;2022-08-06T04:43:06;2.63;;;2.20;;
2416;SDS011;1219;48.736;9.330;2022-08-06T04:45:33;2.90;;;1.90;;
2416;SDS011;1219;48.736;9.330;2022-08-06T04:47:59;2.50;;;2.10;;
2416;SDS011;1219;48.736;9.330;2022-08-06T04:50:25;1.70;;;1.60;;
2416;SDS011;1219;48.736;9.330;2022-08-06T04:52:51;5.00;;;1.97;;
2416;SDS011;1219;48.736;9.330;2022-08-06T04:55:18;2.13;;;2.03;;
2416;SDS011;1219;48.736;9.330;2022-08-06T04:57:44;1.90;;;1.80;;
2416;SDS011;1219;48.736;9.330;2022-08-06T05:00:11;2.60;;;2.17;;
2416;SDS011;1219;48.736;9.330;2022-08-06T05:02:37;3.00;;;1.90;;
2416;SDS011;1219;48.736;9.330;2022-08-06T05:05:03;2.00;;;1.90;;
2416;SDS011;1219;48.736;9.330;2022-08-06T05:07:29;2.47;;;1.80;;
2416;SDS011;1219;48.736;9.330;2022-08-06T05:10:00;1.80;;;1.70;;
2416;SDS011;1219;48.736;9.330;2022-08-06T05:12:37;1.90;;;1.80;;
2416;SDS011;1219;48.736;9.330;2022-08-06T05:15:14;1.90;;;1.80;;
2416;SDS011;1219;48.736;9.330;2022-08-06T05:17:41;3.40;;;1.80;;
2416;SDS011;1219;48.736;9.330;2022-08-06T05:20:11;2.17;;;1.90;;
2416;SDS011;1219;48.736;9.330;2022-08-06T05:22:39;1.80;;;1.70;;
2416;SDS011;1219;48.736;9.330;2022-08-06T05:25:06;2.53;;;1.80;;
2416;SDS011;1219;48.736;9.330;2022-08-06T05:27:32;2.43;;;2.23;;
2416;SDS011;1219;48.736;9.330;2022-08-06T05:29:58;1.73;;;1.63;;
2416;SDS011;1219;48.736;9.330;2022-08-06T05:32:26;2.70;;;1.97;;
2416;SDS011;1219;48.736;9.330;2022-08-06T05:34:52;4.53;;;2.40;;
2416;SDS011;1219;48.736;9.330;2022-08-06T05:37:18;2.20;;;2.00;;
2416;SDS011;1219;48.736;9.330;2022-08-06T05:39:44;2.60;;;1.80;;
2416;SDS011;1219;48.736;9.330;2022-08-06T05:42:10;2.20;;;2.10;;
2416;SDS011;1219;48.736;9.330;2022-08-06T05:44:36;2.57;;;2.37;;
2416;SDS011;1219;48.736;9.330;2022-08-06T05:47:06;3.90;;;2.40;;
2416;SDS011;1219;48.736;9.330;2022-08-06T05:49:39;2.17;;;1.90;;
2416;SDS011;1219;48.736;9.330;2022-08-06T05:52:11;3.50;;;1.93;;
2416;SDS011;1219;48.736;9.330;2022-08-06T05:54:55;3.90;;;1.90;;
2416;SDS011;1219;48.736;9.330;2022-08-06T05:57:28;2.87;;;2.33;;
2416;SDS011;1219;48.736;9.330;2022-08-06T05:59:59;3.60;;;2.10;;
2416;SDS011;1219;48.736;9.330;2022-08-06T06:02:27;2.43;;;2.23;;
2416;SDS011;1219;48.736;9.330;2022-08-06T06:04:54;1.90;;;1.80;;
2416;SDS011;1219;48.736;9.330;2022-08-06T06:07:20;2.10;;;2.00;;
2416;SDS011;1219;48.736;9.330;2022-08-06T06:09:46;1.80;;;1.70;;
2416;SDS011;1219;48.736;9.330;2022-08-06T06:12:13;2.17;;;1.70;;
2416;SDS011;1219;48.736;9.330;2022-08-06T06:14:40;2.70;;;1.87;;
2416;SDS011;1219;48.736;9.330;2022-08-06T06:22:23;4.17;;;2.30;;
2416;SDS011;1219;48.736;9.330;2022-08-06T06:24:55;2.30;;;2.20;;
2416;SDS011;1219;48.736;9.330;2022-08-06T06:27:33;2.60;;;2.40;;
2416;SDS011;1219;48.736;9.330;2022-08-06T06:34:56;2.73;;;2.53;;
2416;SDS011;1219;48.736;9.330;2022-08-06T06:37:29;2.30;;;2.10;;
2416;SDS011;1219;48.736;9.330;2022-08-06T06:42:40;2.50;;;2.30;;
2416;SDS011;1219;48.736;9.330;2022-08-06T06:50:18;2.43;;;2.30;;
2416;SDS011;1219;48.736;9.330;2022-08-06T06:52:45;2.60;;;2.40;;
2416;SDS011;1219;48.736;9.330;2022-08-06T06:55:13;5.00;;;2.67;;
2416;SDS011;1219;48.736;9.330;2022-08-06T06:57:43;4.13;;;3.10;;
2416;SDS011;1219;48.736;9.330;2022-08-06T07:00:11;2.40;;;2.07;;
2416;SDS011;1219;48.736;9.330;2022-08-06T07:02:37;3.40;;;2.00;;
2416;SDS011;1219;48.736;9.330;2022-08-06T07:05:07;2.73;;;2.40;;
2416;SDS011;1219;48.736;9.330;2022-08-06T07:07:35;3.57;;;2.10;;
2416;SDS011;1219;48.736;9.330;2022-08-06T07:10:02;2.03;;;1.83;;
2416;SDS011;1219;48.736;9.330;2022-08-06T07:12:30;8.70;;;3.40;;
2416;SDS011;1219;48.736;9.330;2022-08-06T07:14:58;2.70;;;2.17;;
2416;SDS011;1219;48.736;9.330;2022-08-06T07:17:24;3.03;;;2.83;;
2416;SDS011;1219;48.736;9.330;2022-08-06T07:19:51;3.43;;;3.13;;
2416;SDS011;1219;48.736;9.330;2022-08-06T07:22:19;5.73;;;2.40;;
2416;SDS011;1219;48.736;9.330;2022-08-06T07:24:46;2.30;;;2.10;;
2416;SDS011;1219;48.736;9.330;2022-08-06T07:27:13;3.23;;;2.30;;
2416;SDS011;1219;48.736;9.330;2022-08-06T07:29:39;4.23;;;2.37;;
2416;SDS011;1219;48.736;9.330;2022-08-06T07:32:07;3.23;;;2.40;;
2416;SDS011;1219;48.736;9.330;2022-08-06T07:34:33;4.20;;;2.63;;
2416;SDS011;1219;48.736;9.330;2022-08-06T07:36:59;2.00;;;1.90;;
2416;SDS011;1219;48.736;9.330;2022-08-06T07:39:27;2.53;;;2.30;;
2416;SDS011;1219;48.736;9.330;2022-08-06T07:41:53;2.20;;;2.00;;
2416;SDS011;1219;48.736;9.330;2022-08-06T07:44:21;3.87;;;2.37;;
2416;SDS011;1219;48.736;9.330;2022-08-06T07:46:48;5.77;;;2.47;;
2416;SDS011;1219;48.736;9.330;2022-08-06T07:49:16;2.07;;;1.97;;
2416;SDS011;1219;48.736;9.330;2022-08-06T07:51:43;2.10;;;1.90;;
2416;SDS011;1219;48.736;9.330;2022-08-06T07:54:10;3.30;;;2.83;;
2416;SDS011;1219;48.736;9.330;2022-08-06T07:56:36;3.33;;;2.53;;
2416;SDS011;1219;48.736;9.330;2022-08-06T07:59:04;2.23;;;2.13;;
2416;SDS011;1219;48.736;9.330;2022-08-06T08:01:30;3.30;;;2.20;;
2416;SDS011;1219;48.736;9.330;2022-08-06T08:03:57;2.57;;;2.30;;
2416;SDS011;1219;48.736;9.330;2022-08-06T08:06:42;6.23;;;2.23;;
2416;SDS011;1219;48.736;9.330;2022-08-06T08:09:09;2.50;;;2.30;;
2416;SDS011;1219;48.736;9.330;2022-08-06T08:11:35;4.80;;;2.33;;
2416;SDS011;1219;48.736;9.330;2022-08-06T08:14:07;2.60;;;2.20;;
2416;SDS011;1219;48.736;9.330;2022-08-06T08:16:34;2.43;;;2.20;;
2416;SDS011;1219;48.736;9.330;2022-08-06T08:19:00;4.50;;;3.60;;
2416;SDS011;1219;48.736;9.330;2022-08-06T08:21:27;3.93;;;3.53;;
2416;SDS011;1219;48.736;9.330;2022-08-06T08:23:53;4.17;;;3.77;;
2416;SDS011;1219;48.736;9.330;2022-08-06T08:26:20;3.27;;;2.97;;
2416;SDS011;1219;48.736;9.330;2022-08-06T08:28:46;4.10;;;3.70;;
2416;SDS011;1219;48.736;9.330;2022-08-06T08:31:12;12.30;;;5.73;;
2416;SDS011;1219;48.736;9.330;2022-08-06T08:33:38;5.10;;;3.07;;
2416;SDS011;1219;48.736;9.330;2022-08-06T08:36:04;2.90;;;2.17;;
2416;SDS011;1219;48.736;9.330;2022-08-06T08:38:31;2.00;;;1.90;;
2416;SDS011;1219;48.736;9.330;2022-08-06T08:41:03;2.83;;;2.57;;
2416;SDS011;1219;48.736;9.330;2022-08-06T08:43:32;2.43;;;2.33;;
2416;SDS011;1219;48.736;9.330;2022-08-06T08:45:59;3.27;;;2.17;;
2416;SDS011;1219;48.736;9.330;2022-08-06T08:48:27;5.63;;;2.00;;
2416;SDS011;1219;48.736;9.330;2022-08-06T08:50:56;3.07;;;2.13;;
2416;SDS011;1219;48.736;9.330;2022-08-06T08:53:26;2.10;;;1.90;;
2416;SDS011;1219;48.736;9.330;2022-08-06T08:55:54;2.00;;;1.80;;
2416;SDS011;1219;48.736;9.330;2022-08-06T08:58:20;2.10;;;2.00;;
2416;SDS011;1219;48.736;9.330;2022-08-06T09:00:47;2.73;;;2.53;;
2416;SDS011;1219;48.736;9.330;2022-08-06T09:03:13;2.10;;;2.00;;
2416;SDS011;1219;48.736;9.330;2022-08-06T09:05:40;2.33;;;2.13;;
2416;SDS011;1219;48.736;9.330;2022-08-06T09:08:06;1.90;;;1.80;;
2416;SDS011;1219;48.736;9.330;2022-08-06T09:10:35;2.90;;;2.00;;
2416;SDS011;1219;48.736;9.330;2022-08-06T09:13:02;2.40;;;2.20;;
2416;SDS011;1219;48.736;9.330;2022-08-06T09:15:29;2.10;;;2.00;;
2416;SDS011;1219;48.736;9.330;2022-08-06T09:17:55;3.83;;;2.83;;
2416;SDS011;1219;48.736;9.330;2022-08-06T09:20:21;3.10;;;2.17;;
2416;SDS011;1219;48.736;9.330;2022-08-06T09:22:47;3.73;;;2.07;;
2416;SDS011;1219;48.736;9.330;2022-08-06T09:28:01;1.93;;;1.83;;
2416;SDS011;1219;48.736;9.330;2022-08-06T09:30:27;3.00;;;2.00;;
2416;SDS011;1219;48.736;9.330;2022-08-06T09:32:53;2.10;;;2.00;;
2416;SDS011;1219;48.736;9.330;2022-08-06T09:35:21;2.30;;;2.10;;
2416;SDS011;1219;48.736;9.330;2022-08-06T09:37:48;2.17;;;2.07;;
2416;SDS011;1219;48.736;9.330;2022-08-06T09:40:16;2.73;;;2.03;;
2416;SDS011;1219;48.736;9.330;2022-08-06T09:42:43;2.20;;;2.00;;
2416;SDS011;1219;48.736;9.330;2022-08-06T09:45:11;3.10;;;2.20;;
2416;SDS011;1219;48.736;9.330;2022-08-06T09:47:37;2.83;;;1.80;;
2416;SDS011;1219;48.736;9.330;2022-08-06T09:50:06;2.40;;;2.20;;
2416;SDS011;1219;48.736;9.330;2022-08-06T09:52:33;4.60;;;2.00;;
2416;SDS011;1219;48.736;9.330;2022-08-06T09:54:59;1.83;;;1.73;;
2416;SDS011;1219;48.736;9.330;2022-08-06T09:57:26;2.23;;;2.03;;
2416;SDS011;1219;48.736;9.330;2022-08-06T09:59:52;2.43;;;2.20;;
2416;SDS011;1219;48.736;9.330;2022-08-06T10:02:19;2.43;;;1.93;;
2416;SDS011;1219;48.736;9.330;2022-08-06T10:04:45;2.17;;;1.97;;
2416;SDS011;1219;48.736;9.330;2022-08-06T10:07:13;2.03;;;1.80;;
2416;SDS011;1219;48.736;9.330;2022-08-06T10:09:53;1.90;;;1.80;;
2416;SDS011;1219;48.736;9.330;2022-08-06T10:12:22;2.43;;;1.90;;
2416;SDS011;1219;48.736;9.330;2022-08-06T10:14:49;2.30;;;2.10;;
2416;SDS011;1219;48.736;9.330;2022-08-06T10:17:16;2.10;;;2.00;;
2416;SDS011;1219;48.736;9.330;2022-08-06T10:19:43;2.30;;;2.10;;
2416;SDS011;1219;48.736;9.330;2022-08-06T10:22:14;1.93;;;1.77;;
2416;SDS011;1219;48.736;9.330;2022-08-06T10:27:08;2.40;;;2.20;;
2416;SDS011;1219;48.736;9.330;2022-08-06T10:29:50;1.90;;;1.80;;
2416;SDS011;1219;48.736;9.330;2022-08-06T10:32:22;2.10;;;1.90;;
2416;SDS011;1219;48.736;9.330;2022-08-06T10:34:48;2.10;;;2.00;;
2416;SDS011;1219;48.736;9.330;2022-08-06T10:37:15;5.20;;;2.57;;
2416;SDS011;1219;48.736;9.330;2022-08-06T10:39:43;2.80;;;1.90;;
2416;SDS011;1219;48.736;9.330;2022-08-06T10:42:11;2.63;;;2.00;;
2416;SDS011;1219;48.736;9.330;2022-08-06T10:44:37;2.33;;;2.13;;
2416;SDS011;1219;48.736;9.330;2022-08-06T10:47:05;1.90;;;1.80;;
2416;SDS011;1219;48.736;9.330;2022-08-06T10:49:32;2.20;;;2.10;;
2416;SDS011;1219;48.736;9.330;2022-08-06T10:51:58;2.30;;;2.20;;
2416;SDS011;1219;48.736;9.330;2022-08-06T10:54:24;4.07;;;2.17;;
2416;SDS011;1219;48.736;9.330;2022-08-06T10:56:51;2.80;;;2.60;;
2416;SDS011;1219;48.736;9.330;2022-08-06T10:59:19;2.83;;;1.80;;
2416;SDS011;1219;48.736;9.330;2022-08-06T11:01:50;3.17;;;1.90;;
2416;SDS011;1219;48.736;9.330;2022-08-06T11:14:20;3.47;;;2.00;;
2416;SDS011;1219;48.736;9.330;2022-08-06T11:16:56;2.00;;;1.80;;
2416;SDS011;1219;48.736;9.330;2022-08-06T11:22:07;1.80;;;1.70;;
2416;SDS011;1219;48.736;9.330;2022-08-06T11:24:33;2.20;;;1.90;;
2416;SDS011;1219;48.736;9.330;2022-08-06T11:27:46;2.07;;;1.80;;
2416;SDS011;1219;48.736;9.330;2022-08-06T11:30:08;2.20;;;1.77;;
2416;SDS011;1219;48.736;9.330;2022-08-06T11:32:50;1.97;;;1.67;;
2416;SDS011;1219;48.736;9.330;2022-08-06T11:37:58;1.80;;;1.70;;
2416;SDS011;1219;48.736;9.330;2022-08-06T11:40:25;2.00;;;1.80;;
2416;SDS011;1219;48.736;9.330;2022-08-06T11:42:51;1.90;;;1.80;;
2416;SDS011;1219;48.736;9.330;2022-08-06T11:45:17;2.37;;;2.00;;
2416;SDS011;1219;48.736;9.330;2022-08-06T11:48:04;1.40;;;1.30;;
2416;SDS011;1219;48.736;9.330;2022-08-06T11:50:29;1.67;;;1.57;;
2416;SDS011;1219;48.736;9.330;2022-08-06T11:52:55;1.43;;;1.33;;
2416;SDS011;1219;48.736;9.330;2022-08-06T11:55:21;1.57;;;1.37;;
2416;SDS011;1219;48.736;9.330;2022-08-06T11:57:48;1.73;;;1.50;;
2416;SDS011;1219;48.736;9.330;2022-08-06T12:00:15;2.40;;;1.50;;
2416;SDS011;1219;48.736;9.330;2022-08-06T12:07:43;1.60;;;1.33;;
2416;SDS011;1219;48.736;9.330;2022-08-06T12:10:10;2.42;;;1.30;;
2416;SDS011;1219;48.736;9.330;2022-08-06T12:12:41;1.60;;;1.50;;
2416;SDS011;1219;48.736;9.330;2022-08-06T12:22:58;1.67;;;1.57;;
2416;SDS011;1219;48.736;9.330;2022-08-06T12:25:34;3.00;;;1.20;;
2416;SDS011;1219;48.736;9.330;2022-08-06T12:28:00;2.03;;;1.83;;
2416;SDS011;1219;48.736;9.330;2022-08-06T12:30:26;2.17;;;1.60;;
2416;SDS011;1219;48.736;9.330;2022-08-06T12:33:00;1.97;;;1.80;;
2416;SDS011;1219;48.736;9.330;2022-08-06T12:35:26;1.80;;;1.70;;
2416;SDS011;1219;48.736;9.330;2022-08-06T12:37:52;2.80;;;1.90;;
2416;SDS011;1219;48.736;9.330;2022-08-06T12:40:20;2.33;;;1.50;;
2416;SDS011;1219;48.736;9.330;2022-08-06T12:42:51;1.77;;;1.50;;
2416;SDS011;1219;48.736;9.330;2022-08-06T12:45:21;2.13;;;1.30;;
2416;SDS011;1219;48.736;9.330;2022-08-06T12:47:57;1.87;;;1.67;;
2416;SDS011;1219;48.736;9.330;2022-08-06T12:50:24;1.67;;;1.57;;
2416;SDS011;1219;48.736;9.330;2022-08-06T12:53:06;1.77;;;1.67;;
2416;SDS011;1219;48.736;9.330;2022-08-06T12:55:34;3.17;;;1.67;;
2416;SDS011;1219;48.736;9.330;2022-08-06T12:58:01;1.80;;;1.70;;
2416;SDS011;1219;48.736;9.330;2022-08-06T13:00:28;1.60;;;1.50;;
2416;SDS011;1219;48.736;9.330;2022-08-06T13:02:54;2.30;;;1.40;;
2416;SDS011;1219;48.736;9.330;2022-08-06T13:05:21;2.60;;;1.60;;
2416;SDS011;1219;48.736;9.330;2022-08-06T13:07:51;1.90;;;1.70;;
2416;SDS011;1219;48.736;9.330;2022-08-06T13:10:17;1.63;;;1.53;;
2416;SDS011;1219;48.736;9.330;2022-08-06T13:12:43;1.77;;;1.67;;
2416;SDS011;1219;48.736;9.330;2022-08-06T13:15:13;1.57;;;1.47;;
2416;SDS011;1219;48.736;9.330;2022-08-06T13:17:39;1.60;;;1.50;;
2416;SDS011;1219;48.736;9.330;2022-08-06T13:20:05;2.50;;;1.60;;
2416;SDS011;1219;48.736;9.330;2022-08-06T13:22:47;1.80;;;1.50;;
2416;SDS011;1219;48.736;9.330;2022-08-06T13:25:14;1.40;;;1.30;;
2416;SDS011;1219;48.736;9.330;2022-08-06T13:27:44;1.20;;;1.20;;
2416;SDS011;1219;48.736;9.330;2022-08-06T13:30:10;1.70;;;1.60;;
2416;SDS011;1219;48.736;9.330;2022-08-06T13:32:36;1.30;;;1.20;;
2416;SDS011;1219;48.736;9.330;2022-08-06T13:35:07;1.43;;;1.33;;
2416;SDS011;1219;48.736;9.330;2022-08-06T13:40:12;1.75;;;1.20;;
2416;SDS011;1219;48.736;9.330;2022-08-06T13:45:21;1.73;;;1.17;;
2416;SDS011;1219;48.736;9.330;2022-08-06T13:47:47;1.60;;;1.40;;
2416;SDS011;1219;48.736;9.330;2022-08-06T13:50:20;2.05;;;1.40;;
2416;SDS011;1219;48.736;9.330;2022-08-06T13:52:46;1.92;;;1.25;;
2416;SDS011;1219;48.736;9.330;2022-08-06T13:55:12;1.20;;;1.10;;
2416;SDS011;1219;48.736;9.330;2022-08-06T13:57:38;1.52;;;1.38;;
2416;SDS011;1219;48.736;9.330;2022-08-06T14:00:05;2.03;;;1.40;;
2416;SDS011;1219;48.736;9.330;2022-08-06T14:02:32;1.75;;;1.50;;
2416;SDS011;1219;48.736;9.330;2022-08-06T14:04:58;2.23;;;1.37;;
2416;SDS011;1219;48.736;9.330;2022-08-06T14:07:24;2.07;;;1.40;;
2416;SDS011;1219;48.736;9.330;2022-08-06T14:09:50;2.33;;;1.60;;
2416;SDS011;1219;48.736;9.330;2022-08-06T14:12:16;1.60;;;1.50;;
2416;SDS011;1219;48.736;9.330;2022-08-06T14:14:42;2.10;;;1.50;;
2416;SDS011;1219;48.736;9.330;2022-08-06T14:17:08;1.60;;;1.50;;
2416;SDS011;1219;48.736;9.330;2022-08-06T14:19:33;1.63;;;1.53;;
2416;SDS011;1219;48.736;9.330;2022-08-06T14:21:59;1.33;;;1.20;;
2416;SDS011;1219;48.736;9.330;2022-08-06T14:24:25;2.33;;;1.60;;
2416;SDS011;1219;48.736;9.330;2022-08-06T14:26:51;3.83;;;1.67;;
2416;SDS011;1219;48.736;9.330;2022-08-06T14:29:17;1.45;;;1.35;;
2416;SDS011;1219;48.736;9.330;2022-08-06T14:31:43;1.67;;;1.30;;
2416;SDS011;1219;48.736;9.330;2022-08-06T14:34:09;1.38;;;1.27;;
2416;SDS011;1219;48.736;9.330;2022-08-06T14:36:35;4.68;;;1.40;;
2416;SDS011;1219;48.736;9.330;2022-08-06T14:39:02;3.23;;;1.50;;
2416;SDS011;1219;48.736;9.330;2022-08-06T14:41:28;1.60;;;1.50;;
2416;SDS011;1219;48.736;9.330;2022-08-06T14:44:13;1.60;;;1.50;;
2416;SDS011;1219;48.736;9.330;2022-08-06T14:46:58;1.70;;;1.60;;
2416;SDS011;1219;48.736;9.330;2022-08-06T14:49:24;1.90;;;1.70;;
2416;SDS011;1219;48.736;9.330;2022-08-06T14:51:50;1.70;;;1.60;;
2416;SDS011;1219;48.736;9.330;2022-08-06T14:54:16;2.20;;;2.10;;
2416;SDS011;1219;48.736;9.330;2022-08-06T14:56:42;2.30;;;1.90;;
2416;SDS011;1219;48.736;9.330;2022-08-06T14:59:10;1.77;;;1.67;;
2416;SDS011;1219;48.736;9.330;2022-08-06T15:01:36;1.90;;;1.70;;
2416;SDS011;1219;48.736;9.330;2022-08-06T15:04:02;2.17;;;1.97;;
2416;SDS011;1219;48.736;9.330;2022-08-06T15:06:28;2.23;;;1.70;;
2416;SDS011;1219;48.736;9.330;2022-08-06T15:08:54;1.60;;;1.50;;
2416;SDS011;1219;48.736;9.330;2022-08-06T15:11:20;1.83;;;1.60;;
2416;SDS011;1219;48.736;9.330;2022-08-06T15:13:46;1.90;;;1.80;;
2416;SDS011;1219;48.736;9.330;2022-08-06T15:16:12;2.00;;;1.83;;
2416;SDS011;1219;48.736;9.330;2022-08-06T15:18:38;2.50;;;1.60;;
2416;SDS011;1219;48.736;9.330;2022-08-06T15:21:07;2.50;;;1.50;;
2416;SDS011;1219;48.736;9.330;2022-08-06T15:23:33;1.73;;;1.50;;
2416;SDS011;1219;48.736;9.330;2022-08-06T15:25:59;1.57;;;1.33;;
2416;SDS011;1219;48.736;9.330;2022-08-06T15:28:25;1.47;;;1.37;;
2416;SDS011;1219;48.736;9.330;2022-08-06T15:30:52;1.70;;;1.43;;
2416;SDS011;1219;48.736;9.330;2022-08-06T15:33:18;2.30;;;1.30;;
2416;SDS011;1219;48.736;9.330;2022-08-06T15:35:44;1.60;;;1.50;;
2416;SDS011;1219;48.736;9.330;2022-08-06T15:38:10;1.43;;;1.33;;
2416;SDS011;1219;48.736;9.330;2022-08-06T15:40:37;1.50;;;1.40;;
2416;SDS011;1219;48.736;9.330;2022-08-06T15:43:04;3.20;;;1.70;;
2416;SDS011;1219;48.736;9.330;2022-08-06T15:45:30;2.40;;;1.53;;
2416;SDS011;1219;48.736;9.330;2022-08-06T15:47:55;2.33;;;1.70;;
2416;SDS011;1219;48.736;9.330;2022-08-06T15:50:23;3.53;;;1.50;;
2416;SDS011;1219;48.736;9.330;2022-08-06T15:52:49;1.70;;;1.60;;
2416;SDS011;1219;48.736;9.330;2022-08-06T15:55:15;3.40;;;1.80;;
2416;SDS011;1219;48.736;9.330;2022-08-06T15:57:41;1.80;;;1.70;;
2416;SDS011;1219;48.736;9.330;2022-08-06T16:00:07;1.93;;;1.60;;
2416;SDS011;1219;48.736;9.330;2022-08-06T16:02:33;2.87;;;1.63;;
2416;SDS011;1219;48.736;9.330;2022-08-06T16:04:59;1.70;;;1.60;;
2416;SDS011;1219;48.736;9.330;2022-08-06T16:07:25;1.93;;;1.80;;
2416;SDS011;1219;48.736;9.330;2022-08-06T16:09:51;3.33;;;1.83;;
2416;SDS011;1219;48.736;9.330;2022-08-06T16:12:17;1.90;;;1.80;;
2416;SDS011;1219;48.736;9.330;2022-08-06T16:14:43;1.73;;;1.60;;
2416;SDS011;1219;48.736;9.330;2022-08-06T16:17:09;3.30;;;1.77;;
2416;SDS011;1219;48.736;9.330;2022-08-06T16:19:36;2.03;;;1.70;;
2416;SDS011;1219;48.736;9.330;2022-08-06T16:22:02;1.80;;;1.70;;
2416;SDS011;1219;48.736;9.330;2022-08-06T16:24:28;1.97;;;1.87;;
2416;SDS011;1219;48.736;9.330;2022-08-06T16:26:54;1.70;;;1.60;;
2416;SDS011;1219;48.736;9.330;2022-08-06T16:29:20;1.87;;;1.60;;